createdAt,value
2023-06-25T00:00:39.603Z,24.33
2023-06-25T00:03:06.450Z,24.34
2023-06-25T00:05:33.229Z,24.27
2023-06-25T00:07:59.884Z,24.25
2023-06-25T00:10:26.480Z,24.22
2023-06-25T00:12:53.073Z,24.23
2023-06-25T00:15:19.669Z,24.23
2023-06-25T00:17:46.334Z,24.15
2023-06-25T00:20:13.005Z,24.08
2023-06-25T00:22:39.673Z,24.01
2023-06-25T00:25:06.818Z,24.01
2023-06-25T00:27:33.466Z,23.94
2023-06-25T00:30:00.173Z,23.93
2023-06-25T00:32:26.951Z,23.81
2023-06-25T00:34:53.626Z,23.80
2023-06-25T00:37:20.262Z,23.79
2023-06-25T00:39:47.696Z,23.80
2023-06-25T00:42:14.579Z,23.74
2023-06-25T00:44:41.266Z,23.72
2023-06-25T00:47:13.890Z,23.74
2023-06-25T00:49:41.210Z,23.69
2023-06-25T00:52:08.056Z,23.65
2023-06-25T00:54:34.700Z,23.63
2023-06-25T00:57:01.347Z,23.62
2023-06-25T00:59:28.134Z,23.60
2023-06-25T01:01:56.705Z,23.57
2023-06-25T01:04:25.552Z,23.58
2023-06-25T01:06:52.463Z,23.62
2023-06-25T01:09:19.401Z,23.56
2023-06-25T01:11:59.816Z,23.55
2023-06-25T01:14:26.434Z,23.51
2023-06-25T01:16:53.038Z,23.46
2023-06-25T01:19:19.789Z,23.47
2023-06-25T01:21:47.016Z,23.47
2023-06-25T01:24:13.817Z,23.40
2023-06-25T01:26:40.414Z,23.44
2023-06-25T01:29:06.997Z,23.29
2023-06-25T01:31:33.657Z,23.33
2023-06-25T01:34:00.283Z,23.29
2023-06-25T01:36:26.921Z,23.28
2023-06-25T01:38:53.568Z,23.24
2023-06-25T01:41:20.177Z,23.22
2023-06-25T01:43:46.766Z,23.20
2023-06-25T01:46:13.464Z,23.21
2023-06-25T01:48:40.141Z,23.18
2023-06-25T01:51:06.780Z,23.13
2023-06-25T01:53:33.493Z,23.07
2023-06-25T01:56:00.151Z,23.05
2023-06-25T01:58:26.751Z,23.01
2023-06-25T02:00:53.333Z,22.99
2023-06-25T02:03:20.102Z,22.92
2023-06-25T02:05:46.802Z,22.92
2023-06-25T02:08:13.415Z,22.85
2023-06-25T02:10:40.085Z,22.80
2023-06-25T02:13:06.732Z,22.74
2023-06-25T02:15:33.366Z,22.71
2023-06-25T02:17:59.998Z,22.71
2023-06-25T02:20:26.627Z,22.69
2023-06-25T02:22:53.276Z,22.58
2023-06-25T02:25:19.868Z,22.63
2023-06-25T02:27:46.444Z,22.61
2023-06-25T02:30:13.514Z,22.62
2023-06-25T02:32:40.221Z,22.57
2023-06-25T02:35:06.927Z,22.55
2023-06-25T02:37:33.513Z,22.50
2023-06-25T02:40:00.193Z,22.45
2023-06-25T02:42:26.814Z,22.43
2023-06-25T02:44:53.402Z,22.36
2023-06-25T02:47:20.034Z,22.41
2023-06-25T02:49:46.608Z,22.38
2023-06-25T02:52:13.212Z,22.35
2023-06-25T02:54:39.793Z,22.30
2023-06-25T02:57:06.377Z,22.29
2023-06-25T02:59:33.064Z,22.28
2023-06-25T03:01:59.690Z,22.30
2023-06-25T03:04:26.295Z,22.25
2023-06-25T03:06:53.009Z,22.24
2023-06-25T03:09:19.665Z,22.23
2023-06-25T03:11:46.425Z,22.21
2023-06-25T03:14:21.926Z,22.17
2023-06-25T03:16:59.662Z,22.12
2023-06-25T03:19:26.292Z,22.17
2023-06-25T03:21:52.921Z,22.16
2023-06-25T03:24:19.548Z,22.14
2023-06-25T03:26:46.198Z,22.09
2023-06-25T03:29:12.872Z,22.10
2023-06-25T03:31:39.518Z,22.09
2023-06-25T03:34:06.191Z,22.08
2023-06-25T03:36:32.940Z,22.01
2023-06-25T03:38:59.587Z,21.99
2023-06-25T03:41:26.169Z,21.98
2023-06-25T03:43:52.770Z,21.94
2023-06-25T03:46:19.368Z,21.95
2023-06-25T03:48:46.073Z,21.97
2023-06-25T03:51:12.865Z,21.90
2023-06-25T03:53:39.744Z,21.92
2023-06-25T03:56:06.409Z,21.91
2023-06-25T03:58:34.332Z,21.92
2023-06-25T04:01:01.308Z,21.90
2023-06-25T04:03:28.039Z,21.94
2023-06-25T04:05:54.692Z,21.86
2023-06-25T04:08:21.296Z,21.89
2023-06-25T04:10:48.005Z,21.89
2023-06-25T04:13:14.626Z,21.89
2023-06-25T04:15:41.352Z,21.90
2023-06-25T04:18:07.981Z,21.90
2023-06-25T04:20:34.612Z,21.93
2023-06-25T04:23:01.279Z,21.92
2023-06-25T04:25:27.908Z,21.92
2023-06-25T04:27:55.240Z,21.93
2023-06-25T04:30:21.875Z,21.92
2023-06-25T04:32:48.506Z,21.96
2023-06-25T04:35:15.182Z,21.96
2023-06-25T04:37:41.811Z,22.01
2023-06-25T04:40:08.947Z,22.04
2023-06-25T04:42:35.776Z,22.06
2023-06-25T04:45:02.400Z,22.09
2023-06-25T04:47:29.143Z,22.12
2023-06-25T04:49:55.760Z,22.16
2023-06-25T04:52:22.366Z,22.24
2023-06-25T04:54:48.973Z,22.28
2023-06-25T04:57:15.899Z,22.30
2023-06-25T04:59:42.489Z,22.37
2023-06-25T05:02:09.124Z,22.36
2023-06-25T05:04:35.779Z,22.36
2023-06-25T05:07:02.605Z,22.46
2023-06-25T05:09:29.375Z,22.57
2023-06-25T05:11:56.083Z,22.56
2023-06-25T05:14:22.740Z,22.62
2023-06-25T05:16:49.476Z,22.70
2023-06-25T05:19:16.236Z,22.87
2023-06-25T05:21:42.920Z,23.05
2023-06-25T05:24:09.523Z,23.03
2023-06-25T05:26:36.189Z,23.13
2023-06-25T05:29:02.840Z,23.19
2023-06-25T05:31:29.780Z,23.35
2023-06-25T05:33:56.427Z,23.40
2023-06-25T05:36:23.069Z,23.55
2023-06-25T05:38:51.570Z,23.61
2023-06-25T05:41:18.425Z,23.56
2023-06-25T05:43:45.023Z,23.59
2023-06-25T05:46:11.629Z,23.68
2023-06-25T05:48:39.084Z,23.77
2023-06-25T05:51:05.745Z,23.83
2023-06-25T05:53:38.953Z,23.90
2023-06-25T05:56:05.930Z,23.95
2023-06-25T05:58:33.281Z,23.97
2023-06-25T06:00:59.928Z,24.07
2023-06-25T06:03:26.586Z,24.14
2023-06-25T06:05:54.919Z,24.20
2023-06-25T06:08:21.589Z,24.27
2023-06-25T06:10:48.229Z,24.32
2023-06-25T06:13:14.893Z,24.42
2023-06-25T06:15:41.681Z,24.46
2023-06-25T06:18:09.209Z,24.53
2023-06-25T06:20:35.866Z,24.60
2023-06-25T06:23:02.507Z,24.66
2023-06-25T06:25:29.163Z,24.81
2023-06-25T06:27:55.894Z,24.88
2023-06-25T06:30:22.790Z,24.89
2023-06-25T06:32:49.558Z,24.96
2023-06-25T06:35:16.228Z,25.02
2023-06-25T06:37:42.912Z,25.08
2023-06-25T06:40:09.600Z,25.08
2023-06-25T06:42:36.202Z,25.16
2023-06-25T06:45:03.158Z,25.18
2023-06-25T06:47:29.860Z,25.22
2023-06-25T06:49:56.482Z,25.24
2023-06-25T06:52:25.082Z,25.24
2023-06-25T06:54:51.721Z,25.25
2023-06-25T06:57:18.438Z,25.31
2023-06-25T06:59:47.863Z,25.32
2023-06-25T07:02:14.588Z,25.35
2023-06-25T07:04:41.255Z,25.41
2023-06-25T07:07:07.949Z,25.40
2023-06-25T07:09:34.617Z,25.41
2023-06-25T07:12:01.230Z,25.38
2023-06-25T07:14:27.865Z,25.37
2023-06-25T07:16:54.583Z,25.39
2023-06-25T07:19:21.231Z,25.43
2023-06-25T07:21:47.817Z,25.41
2023-06-25T07:24:14.457Z,25.49
2023-06-25T07:26:41.103Z,25.49
2023-06-25T07:29:07.715Z,25.52
2023-06-25T07:31:34.306Z,25.51
2023-06-25T07:34:00.988Z,25.51
2023-06-25T07:36:27.587Z,25.55
2023-06-25T07:38:57.726Z,25.59
2023-06-25T07:41:24.356Z,25.58
2023-06-25T07:43:51.028Z,25.68
2023-06-25T07:46:17.868Z,25.71
2023-06-25T07:48:44.512Z,25.74
2023-06-25T07:51:11.128Z,25.78
2023-06-25T07:53:37.760Z,25.81
2023-06-25T07:56:05.135Z,25.86
2023-06-25T07:58:32.067Z,25.96
2023-06-25T08:00:58.722Z,26.00
2023-06-25T08:03:25.558Z,26.06
2023-06-25T08:05:52.429Z,26.11
2023-06-25T08:08:19.098Z,26.15
2023-06-25T08:10:45.776Z,26.19
2023-06-25T08:13:12.393Z,26.22
2023-06-25T08:15:39.552Z,26.21
2023-06-25T08:18:06.443Z,26.23
2023-06-25T08:20:33.087Z,26.24
2023-06-25T08:23:00.905Z,26.31
2023-06-25T08:25:28.081Z,26.33
2023-06-25T08:27:54.689Z,26.32
2023-06-25T08:30:21.459Z,26.04
2023-06-25T08:32:48.279Z,26.10
2023-06-25T08:35:15.183Z,26.03
2023-06-25T08:37:42.192Z,26.04
2023-06-25T08:40:11.577Z,26.04
2023-06-25T08:42:38.219Z,26.09
2023-06-25T08:45:05.078Z,26.20
2023-06-25T08:47:34.324Z,26.27
2023-06-25T08:50:01.021Z,26.37
2023-06-25T08:52:27.693Z,26.35
2023-06-25T08:54:54.548Z,26.47
2023-06-25T08:57:21.291Z,26.43
2023-06-25T08:59:47.919Z,26.47
2023-06-25T09:02:14.605Z,26.42
2023-06-25T09:04:41.342Z,26.50
2023-06-25T09:07:08.891Z,26.61
2023-06-25T09:09:35.662Z,26.64
2023-06-25T09:12:02.260Z,26.72
2023-06-25T09:14:30.585Z,26.81
2023-06-25T09:16:57.255Z,26.89
2023-06-25T09:19:23.954Z,26.79
2023-06-25T09:21:50.673Z,26.63
2023-06-25T09:24:18.396Z,26.73
2023-06-25T09:26:52.080Z,26.70
2023-06-25T09:29:20.802Z,26.74
2023-06-25T09:31:47.989Z,26.80
2023-06-25T09:34:16.618Z,26.65
2023-06-25T09:36:43.692Z,26.73
2023-06-25T09:39:11.538Z,26.83
2023-06-25T09:41:39.078Z,26.79
2023-06-25T09:44:06.349Z,26.94
2023-06-25T09:46:38.771Z,26.93
2023-06-25T09:49:05.607Z,27.10
2023-06-25T09:51:35.688Z,27.11
2023-06-25T09:54:02.779Z,27.16
2023-06-25T09:56:29.430Z,26.87
2023-06-25T09:58:56.019Z,27.07
2023-06-25T10:01:22.766Z,27.16
2023-06-25T10:03:49.713Z,27.25
2023-06-25T10:06:16.460Z,27.32
2023-06-25T10:08:43.096Z,27.38
2023-06-25T10:11:09.726Z,27.40
2023-06-25T10:13:40.815Z,27.46
2023-06-25T10:16:07.514Z,27.37
2023-06-25T10:18:42.302Z,27.35
2023-06-25T10:21:08.974Z,27.40
2023-06-25T10:23:37.189Z,27.51
2023-06-25T10:26:03.927Z,27.55
2023-06-25T10:28:34.946Z,27.61
2023-06-25T10:31:12.524Z,27.68
2023-06-25T10:33:39.243Z,27.66
2023-06-25T10:36:07.363Z,27.68
2023-06-25T10:38:34.005Z,27.79
2023-06-25T10:41:00.713Z,27.88
2023-06-25T10:43:27.411Z,27.90
2023-06-25T10:45:55.119Z,28.03
2023-06-25T10:48:22.011Z,28.12
2023-06-25T10:50:48.888Z,28.19
2023-06-25T10:53:16.784Z,28.29
2023-06-25T10:55:50.574Z,28.33
2023-06-25T10:58:18.417Z,28.41
2023-06-25T11:00:45.409Z,28.45
2023-06-25T11:03:12.243Z,28.61
2023-06-25T11:05:40.513Z,28.66
2023-06-25T11:08:07.094Z,28.65
2023-06-25T11:10:33.895Z,28.61
2023-06-25T11:13:00.658Z,28.68
2023-06-25T11:15:31.706Z,28.64
2023-06-25T11:17:58.392Z,28.72
2023-06-25T11:20:28.745Z,28.79
2023-06-25T11:22:58.375Z,28.89
2023-06-25T11:25:24.996Z,28.90
2023-06-25T11:28:10.575Z,28.96
2023-06-25T11:30:37.331Z,28.96
2023-06-25T11:33:17.388Z,29.00
2023-06-25T11:35:44.109Z,29.04
2023-06-25T11:38:10.787Z,29.15
2023-06-25T11:40:38.381Z,29.23
2023-06-25T11:43:05.035Z,29.14
2023-06-25T11:45:49.564Z,29.12
2023-06-25T11:48:17.197Z,29.10
2023-06-25T11:50:44.513Z,29.10
2023-06-25T11:53:11.309Z,29.15
2023-06-25T11:55:39.048Z,29.15
2023-06-25T11:58:05.869Z,29.20
2023-06-25T12:00:32.543Z,29.27
2023-06-25T12:02:59.193Z,29.33
2023-06-25T12:05:25.884Z,29.25
2023-06-25T12:07:52.519Z,29.28
2023-06-25T12:10:19.180Z,29.19
2023-06-25T12:12:46.565Z,29.19
2023-06-25T12:15:13.249Z,29.11
2023-06-25T12:17:39.971Z,29.09
2023-06-25T12:20:06.970Z,29.11
2023-06-25T12:22:33.767Z,29.11
2023-06-25T12:25:00.660Z,29.22
2023-06-25T12:27:27.298Z,29.33
2023-06-25T12:29:53.972Z,29.41
2023-06-25T12:32:20.594Z,29.44
2023-06-25T12:34:47.383Z,29.50
2023-06-25T12:37:14.094Z,29.49
2023-06-25T12:39:40.762Z,29.52
2023-06-25T12:42:07.789Z,29.60
2023-06-25T12:44:34.413Z,29.52
2023-06-25T12:47:01.085Z,29.51
2023-06-25T12:49:27.755Z,29.49
2023-06-25T12:51:54.380Z,29.52
2023-06-25T12:54:21.038Z,29.46
2023-06-25T12:56:47.677Z,29.48
2023-06-25T12:59:14.732Z,29.47
2023-06-25T13:01:41.790Z,29.31
2023-06-25T13:04:08.473Z,29.37
2023-06-25T13:06:35.149Z,29.43
2023-06-25T13:09:01.843Z,29.50
2023-06-25T13:11:28.508Z,29.57
2023-06-25T13:13:55.200Z,29.64
2023-06-25T13:16:21.852Z,29.67
2023-06-25T13:18:48.453Z,29.71
2023-06-25T13:21:15.031Z,29.73
2023-06-25T13:23:41.669Z,29.67
2023-06-25T13:26:08.344Z,29.68
2023-06-25T13:28:34.963Z,29.74
2023-06-25T13:31:01.750Z,29.77
2023-06-25T13:33:30.119Z,29.70
2023-06-25T13:35:57.079Z,29.76
2023-06-25T13:38:23.657Z,29.78
2023-06-25T13:40:50.319Z,29.89
2023-06-25T13:43:16.925Z,29.86
2023-06-25T13:45:43.602Z,29.92
2023-06-25T13:48:10.283Z,30.00
2023-06-25T13:50:36.976Z,30.03
2023-06-25T13:53:03.725Z,30.13
2023-06-25T13:55:30.343Z,30.12
2023-06-25T13:57:56.959Z,30.23
2023-06-25T14:00:23.637Z,30.45
2023-06-25T14:03:02.456Z,30.64
2023-06-25T14:05:29.486Z,30.89
2023-06-25T14:07:56.058Z,31.07
2023-06-25T14:10:22.690Z,31.27
2023-06-25T14:12:49.385Z,31.36
2023-06-25T14:15:16.010Z,31.52
2023-06-25T14:17:42.660Z,31.62
2023-06-25T14:20:09.584Z,31.81
2023-06-25T14:22:36.383Z,31.98
2023-06-25T14:25:03.134Z,32.24
2023-06-25T14:27:29.764Z,32.48
2023-06-25T14:29:56.391Z,32.71
2023-06-25T14:32:23.000Z,32.90
2023-06-25T14:34:49.690Z,33.13
2023-06-25T14:37:17.070Z,33.38
2023-06-25T14:39:43.769Z,33.71
2023-06-25T14:42:10.472Z,33.94
2023-06-25T14:44:37.186Z,34.16
2023-06-25T14:47:03.940Z,34.57
2023-06-25T14:49:30.805Z,34.85
2023-06-25T14:51:57.447Z,35.17
2023-06-25T14:54:24.098Z,35.33
2023-06-25T14:56:52.320Z,35.60
2023-06-25T14:59:18.992Z,35.90
2023-06-25T15:01:45.860Z,36.34
2023-06-25T15:04:12.861Z,36.71
2023-06-25T15:06:39.649Z,36.96
2023-06-25T15:09:06.244Z,37.26
2023-06-25T15:11:33.197Z,37.70
2023-06-25T15:13:59.953Z,38.03
2023-06-25T15:16:27.161Z,38.32
2023-06-25T15:18:53.827Z,38.70
2023-06-25T15:21:20.772Z,38.96
2023-06-25T15:23:47.426Z,39.34
2023-06-25T15:26:14.248Z,39.59
2023-06-25T15:28:43.491Z,39.93
2023-06-25T15:31:10.196Z,40.21
2023-06-25T15:33:36.873Z,40.69
2023-06-25T15:36:03.520Z,40.91
2023-06-25T15:38:30.102Z,41.09
2023-06-25T15:40:56.675Z,41.54
2023-06-25T15:43:24.405Z,41.76
2023-06-25T15:45:51.061Z,42.22
2023-06-25T15:48:17.729Z,42.33
2023-06-25T15:50:44.379Z,42.35
2023-06-25T15:53:10.982Z,42.82
2023-06-25T15:55:37.624Z,43.22
2023-06-25T15:58:04.208Z,43.52
2023-06-25T16:00:30.822Z,43.69
2023-06-25T16:02:57.500Z,43.91
2023-06-25T16:05:24.285Z,44.10
2023-06-25T16:07:50.896Z,44.37
2023-06-25T16:10:17.526Z,44.48
2023-06-25T16:12:44.307Z,44.37
2023-06-25T16:15:10.944Z,44.43
2023-06-25T16:17:37.577Z,44.63
2023-06-25T16:20:11.740Z,44.86
2023-06-25T16:22:39.573Z,44.75
2023-06-25T16:25:06.527Z,44.69
2023-06-25T16:27:33.116Z,44.78
2023-06-25T16:29:59.803Z,44.93
2023-06-25T16:32:26.591Z,44.92
2023-06-25T16:34:53.255Z,44.98
2023-06-25T16:37:19.856Z,44.83
2023-06-25T16:39:46.434Z,44.51
2023-06-25T16:42:13.024Z,43.42
2023-06-25T16:44:39.696Z,42.02
2023-06-25T16:47:06.308Z,41.35
2023-06-25T16:49:35.147Z,41.16
2023-06-25T16:52:01.789Z,41.36
2023-06-25T16:54:28.503Z,40.93
2023-06-25T16:56:55.176Z,39.49
2023-06-25T16:59:21.893Z,38.08
2023-06-25T17:01:48.586Z,36.99
2023-06-25T17:04:15.187Z,36.04
2023-06-25T17:06:41.969Z,35.58
2023-06-25T17:09:08.580Z,35.09
2023-06-25T17:11:35.495Z,34.37
2023-06-25T17:14:02.129Z,33.89
2023-06-25T17:16:28.794Z,33.78
2023-06-25T17:18:55.398Z,33.75
2023-06-25T17:21:22.301Z,33.37
2023-06-25T17:23:48.889Z,33.04
2023-06-25T17:26:15.549Z,32.62
2023-06-25T17:28:42.204Z,32.40
2023-06-25T17:31:08.854Z,32.25
2023-06-25T17:33:35.547Z,31.99
2023-06-25T17:36:02.151Z,31.84
2023-06-25T17:38:28.818Z,31.69
2023-06-25T17:40:55.443Z,31.60
2023-06-25T17:43:22.023Z,31.47
2023-06-25T17:45:48.751Z,31.29
2023-06-25T17:48:15.448Z,31.05
2023-06-25T17:50:42.135Z,31.05
2023-06-25T17:53:08.804Z,30.96
2023-06-25T17:55:35.811Z,30.90
2023-06-25T17:58:03.119Z,30.74
2023-06-25T18:00:29.869Z,30.69
2023-06-25T18:02:56.605Z,30.53
2023-06-25T18:05:23.333Z,30.45
2023-06-25T18:07:50.098Z,30.35
2023-06-25T18:10:16.702Z,30.34
2023-06-25T18:12:43.290Z,30.26
2023-06-25T18:15:09.998Z,30.19
2023-06-25T18:17:36.659Z,29.97
2023-06-25T18:20:03.328Z,29.94
2023-06-25T18:22:29.994Z,30.00
2023-06-25T18:24:56.600Z,29.87
2023-06-25T18:27:23.227Z,29.89
2023-06-25T18:29:49.910Z,29.88
2023-06-25T18:32:16.560Z,29.76
2023-06-25T18:34:43.349Z,29.63
2023-06-25T18:37:09.955Z,29.61
2023-06-25T18:39:36.677Z,29.56
2023-06-25T18:42:03.435Z,29.45
2023-06-25T18:44:30.040Z,29.35
2023-06-25T18:46:56.735Z,29.25
2023-06-25T18:49:23.533Z,29.12
2023-06-25T18:51:50.306Z,29.04
2023-06-25T18:54:16.953Z,28.97
2023-06-25T18:56:43.651Z,28.94
2023-06-25T18:59:10.365Z,28.88
2023-06-25T19:01:37.017Z,28.77
2023-06-25T19:04:03.829Z,28.79
2023-06-25T19:06:30.643Z,28.76
2023-06-25T19:08:57.295Z,28.63
2023-06-25T19:11:23.956Z,28.54
2023-06-25T19:13:50.607Z,28.54
2023-06-25T19:16:17.303Z,28.50
2023-06-25T19:18:43.976Z,28.45
2023-06-25T19:21:10.607Z,28.36
2023-06-25T19:23:39.243Z,28.37
2023-06-25T19:26:06.667Z,28.34
2023-06-25T19:28:33.327Z,28.27
2023-06-25T19:31:00.109Z,28.18
2023-06-25T19:33:26.771Z,28.01
2023-06-25T19:35:53.418Z,28.04
2023-06-25T19:38:20.033Z,27.97
2023-06-25T19:40:46.765Z,27.82
2023-06-25T19:43:14.245Z,27.84
2023-06-25T19:45:40.902Z,27.84
2023-06-25T19:48:07.678Z,27.79
2023-06-25T19:50:34.432Z,27.78
2023-06-25T19:53:01.075Z,27.77
2023-06-25T19:55:27.756Z,27.74
2023-06-25T19:57:54.398Z,27.65
2023-06-25T20:00:21.041Z,27.63
2023-06-25T20:02:47.730Z,27.54
2023-06-25T20:05:14.704Z,27.53
2023-06-25T20:07:41.531Z,27.49
2023-06-25T20:10:08.423Z,27.47
2023-06-25T20:12:35.122Z,27.44
2023-06-25T20:15:01.732Z,27.44
2023-06-25T20:17:28.549Z,27.30
2023-06-25T20:19:55.242Z,27.32
2023-06-25T20:22:21.883Z,27.18
2023-06-25T20:24:48.526Z,27.10
2023-06-25T20:27:15.112Z,27.12
2023-06-25T20:29:41.777Z,27.05
2023-06-25T20:32:08.448Z,27.07
2023-06-25T20:34:35.210Z,27.02
2023-06-25T20:37:02.023Z,26.95
2023-06-25T20:39:28.702Z,26.96
2023-06-25T20:41:55.409Z,26.91
2023-06-25T20:44:22.032Z,26.80
2023-06-25T20:46:48.645Z,26.69
2023-06-25T20:49:15.293Z,26.70
2023-06-25T20:51:41.936Z,26.68
2023-06-25T20:54:08.566Z,26.57
2023-06-25T20:56:35.206Z,26.58
2023-06-25T20:59:01.870Z,26.56
2023-06-25T21:01:28.573Z,26.54
2023-06-25T21:03:58.499Z,26.55
2023-06-25T21:06:25.153Z,26.54
2023-06-25T21:08:51.843Z,26.59
2023-06-25T21:11:18.436Z,26.56
2023-06-25T21:13:45.072Z,26.51
2023-06-25T21:16:11.905Z,26.47
2023-06-25T21:18:38.495Z,26.38
2023-06-25T21:21:05.176Z,26.36
2023-06-25T21:23:31.807Z,26.32
2023-06-25T21:25:58.441Z,26.27
2023-06-25T21:28:25.048Z,26.27
2023-06-25T21:30:51.704Z,26.24
2023-06-25T21:33:18.325Z,26.20
2023-06-25T21:35:44.972Z,26.17
2023-06-25T21:38:11.628Z,26.15
2023-06-25T21:40:38.710Z,26.14
2023-06-25T21:43:05.618Z,26.02
2023-06-25T21:45:32.327Z,26.03
2023-06-25T21:47:59.016Z,26.03
2023-06-25T21:50:25.669Z,26.04
2023-06-25T21:52:52.293Z,26.04
2023-06-25T21:55:18.921Z,25.98
2023-06-25T21:57:45.687Z,25.93
2023-06-25T22:00:12.615Z,25.94
2023-06-25T22:02:39.579Z,25.97
2023-06-25T22:05:06.934Z,25.97
2023-06-25T22:07:33.584Z,25.92
2023-06-25T22:10:00.273Z,25.94
2023-06-25T22:12:26.854Z,25.93
2023-06-25T22:14:53.515Z,25.96
2023-06-25T22:17:20.455Z,25.93
2023-06-25T22:19:47.469Z,25.94
2023-06-25T22:22:14.123Z,25.90
2023-06-25T22:24:40.799Z,25.84
2023-06-25T22:27:07.415Z,25.86
2023-06-25T22:29:41.954Z,25.77
2023-06-25T22:32:10.022Z,25.80
2023-06-25T22:34:36.855Z,25.70
2023-06-25T22:37:03.563Z,25.70
2023-06-25T22:39:30.153Z,25.70
2023-06-25T22:41:56.779Z,25.66
2023-06-25T22:44:23.373Z,25.62
2023-06-25T22:46:49.961Z,25.63
2023-06-25T22:49:16.646Z,25.57
2023-06-25T22:51:43.286Z,25.57
2023-06-25T22:54:09.909Z,25.48
2023-06-25T22:56:36.557Z,25.45
2023-06-25T22:59:03.703Z,25.35
2023-06-25T23:01:30.381Z,25.31
2023-06-25T23:03:57.154Z,25.26
2023-06-25T23:06:24.797Z,25.21
2023-06-25T23:08:51.439Z,25.16
2023-06-25T23:11:18.084Z,25.09
2023-06-25T23:13:44.729Z,25.04
2023-06-25T23:16:11.347Z,25.02
2023-06-25T23:18:38.481Z,25.03
2023-06-25T23:21:05.601Z,24.99
2023-06-25T23:23:32.624Z,24.95
2023-06-25T23:25:59.777Z,24.99
2023-06-25T23:28:27.305Z,24.95
2023-06-25T23:30:53.977Z,24.91
2023-06-25T23:33:20.684Z,24.82
2023-06-25T23:35:47.403Z,24.80
2023-06-25T23:38:14.094Z,24.82
2023-06-25T23:40:40.914Z,24.84
2023-06-25T23:43:07.634Z,24.81
2023-06-25T23:45:34.260Z,24.81
2023-06-25T23:48:01.052Z,24.76
2023-06-25T23:50:27.775Z,24.71
2023-06-25T23:52:54.472Z,24.73
2023-06-25T23:55:21.169Z,24.75
2023-06-25T23:57:47.773Z,24.73
